Main page
METAR-TAF:

METAR-TAF

Airports :

Satu Mare International Airport

Satu Mare, Romania

latitude: 47-48N, longitude: 022-53E, elevation: 123 m

Current weather observation

The report was made 13 minutes ago, at 14:30 UTC
Wind 4 kt from the East/Southeast
Temperature 4°C
Humidity 60%
Pressure 1026 hPa
Visibility 10 km or more
no clouds below 1500 m and no cumulonimbus

METAR: LRSM 241430Z 11004KT CAVOK 04/M03 Q1026

Time: 16:43 (14:43 UTC)

Forecast

The report was made 43 minutes ago, at 14:00 UTC
Forecast valid from 24 at 15 UTC to 24 at 24 UTC
Wind 4 kt from variable directions
Visibility 10 km or more
no clouds below 1500 m and no cumulonimbus
Becoming
from 24 at 17 UTC to 24 at 19 UTC
Visibility: 3000 m
mist
Becoming
from 24 at 20 UTC to 24 at 22 UTC
Visibility: 1500 m
mist
Probability 40% :
Temporary
from 24 at 22 UTC to 24 at 24 UTC
Visibility: 0600 m
at a height of 200 ft
freezing fog

TAF: LRSM 241400Z 2415/2424 VRB04KT CAVOK BECMG 2417/2419 3000 BR BECMG 2420/2422 1500 BR PROB40 TEMPO 2422/2424 0600 FZFG VV002

Weather observations and forecasts of more than 4000 airports (METAR and TAF reports).

The available stations are represented by yellow and red dots on the map.

Hover mouse over dot to see the name of the station.

Then click to see weather observations and forecasts.

To change the map : click on the green buttons with a black cross to zoom in, on the green button with a dash to zoom out, or on the green arrows for adjacent maps.


METAR-TAF: